createdAt,value
2018-11-10T00:01:39.214Z,101070.00
2018-11-10T00:03:42.266Z,101069.00
2018-11-10T00:05:45.301Z,101065.00
2018-11-10T00:07:48.709Z,101058.00
2018-11-10T00:09:51.702Z,101043.00
2018-11-10T00:11:54.700Z,101046.00
2018-11-10T00:13:57.720Z,101037.00
2018-11-10T00:16:00.771Z,101032.00
2018-11-10T00:18:04.309Z,101026.00
2018-11-10T00:20:08.935Z,101025.00
2018-11-10T00:22:11.951Z,101017.00
2018-11-10T00:24:14.943Z,101020.00
2018-11-10T00:26:18.000Z,101022.00
2018-11-10T00:28:20.999Z,101015.00
2018-11-10T00:30:24.139Z,101006.00
2018-11-10T00:32:27.153Z,101011.00
2018-11-10T00:34:30.196Z,101013.00
2018-11-10T00:36:33.212Z,101015.00
2018-11-10T00:38:36.497Z,101012.00
2018-11-10T00:40:39.600Z,101017.00
2018-11-10T00:42:43.624Z,101014.00
2018-11-10T00:44:46.684Z,101007.00
2018-11-10T00:46:49.725Z,101004.00
2018-11-10T00:48:52.792Z,101005.00
2018-11-10T00:50:55.843Z,101002.00
2018-11-10T00:52:58.868Z,101003.00
2018-11-10T00:55:01.937Z,101004.00
2018-11-10T00:57:05.061Z,101004.00
2018-11-10T00:59:09.906Z,101000.00
2018-11-10T01:01:12.986Z,101001.00
2018-11-10T01:03:16.097Z,101002.00
2018-11-10T01:05:19.181Z,101004.00
2018-11-10T01:07:22.217Z,101010.00
2018-11-10T01:09:25.222Z,101013.00
2018-11-10T01:11:28.293Z,101015.00
2018-11-10T01:13:31.289Z,101018.00
2018-11-10T01:15:34.299Z,101017.00
2018-11-10T01:17:38.688Z,101015.00
2018-11-10T01:19:41.718Z,101010.00
2018-11-10T01:21:44.789Z,101011.00
2018-11-10T01:23:47.829Z,101008.00
2018-11-10T01:25:50.843Z,101011.00
2018-11-10T01:27:53.843Z,101007.00
2018-11-10T01:29:56.893Z,101007.00
2018-11-10T01:31:59.941Z,101002.00
2018-11-10T01:34:02.971Z,101002.00
2018-11-10T01:36:07.725Z,101006.00
2018-11-10T01:38:10.753Z,101000.00
2018-11-10T01:40:14.373Z,100997.00
2018-11-10T01:42:17.763Z,100991.00
2018-11-10T01:44:20.765Z,100992.00
2018-11-10T01:46:23.772Z,100989.00
2018-11-10T01:48:26.805Z,100994.00
2018-11-10T01:50:29.811Z,100989.00
2018-11-10T01:52:32.852Z,100986.00
2018-11-10T01:54:37.382Z,100988.00
2018-11-10T01:56:40.381Z,100987.00
2018-11-10T01:58:43.511Z,100985.00
2018-11-10T02:00:47.116Z,100984.00
2018-11-10T02:02:50.155Z,100983.00
2018-11-10T02:04:53.232Z,100984.00
2018-11-10T02:06:56.249Z,100978.00
2018-11-10T02:08:59.311Z,100974.00
2018-11-10T02:11:02.338Z,100977.00
2018-11-10T02:13:05.708Z,100977.00
2018-11-10T02:15:12.544Z,100972.00
2018-11-10T02:17:15.560Z,100970.00
2018-11-10T02:19:18.649Z,100967.00
2018-11-10T02:21:21.702Z,100968.00
2018-11-10T02:23:24.789Z,100960.00
2018-11-10T02:25:27.893Z,100963.00
2018-11-10T02:27:31.121Z,100958.00
2018-11-10T02:29:34.161Z,100955.00
2018-11-10T02:31:38.807Z,100960.00
2018-11-10T02:33:41.846Z,100959.00
2018-11-10T02:35:44.851Z,100959.00
2018-11-10T02:37:47.865Z,100958.00
2018-11-10T02:39:50.969Z,100954.00
2018-11-10T02:41:54.029Z,100955.00
2018-11-10T02:43:57.102Z,100953.00
2018-11-10T02:46:00.117Z,100949.00
2018-11-10T02:48:03.120Z,100956.00
2018-11-10T02:50:07.926Z,100953.00
2018-11-10T02:52:10.973Z,100956.00
2018-11-10T02:54:14.015Z,100953.00
2018-11-10T02:56:16.981Z,100950.00
2018-11-10T02:58:19.997Z,100947.00
2018-11-10T03:00:23.129Z,100941.00
2018-11-10T03:02:26.105Z,100943.00
2018-11-10T03:04:29.104Z,100939.00
2018-11-10T03:06:32.161Z,100938.00
2018-11-10T03:08:35.161Z,100941.00
2018-11-10T03:10:39.896Z,100934.00
2018-11-10T03:12:43.079Z,100939.00
2018-11-10T03:14:46.147Z,100932.00
2018-11-10T03:16:49.143Z,100935.00
2018-11-10T03:18:52.485Z,100944.00
2018-11-10T03:20:55.481Z,100944.00
2018-11-10T03:22:58.467Z,100943.00
2018-11-10T03:25:01.729Z,100937.00
2018-11-10T03:27:04.944Z,100941.00
2018-11-10T03:29:09.746Z,100938.00
2018-11-10T03:31:12.811Z,100940.00
2018-11-10T03:33:15.944Z,100938.00
2018-11-10T03:35:19.032Z,100934.00
2018-11-10T03:37:22.105Z,100933.00
2018-11-10T03:39:25.207Z,100928.00
2018-11-10T03:41:28.305Z,100926.00
2018-11-10T03:43:31.400Z,100931.00
2018-11-10T03:45:34.455Z,100929.00
2018-11-10T03:47:39.489Z,100922.00
2018-11-10T03:49:42.562Z,100921.00
2018-11-10T03:51:45.666Z,100918.00
2018-11-10T03:53:48.666Z,100914.00
2018-11-10T03:55:51.735Z,100916.00
2018-11-10T03:57:54.815Z,100912.00
2018-11-10T03:59:57.905Z,100913.00
2018-11-10T04:02:00.945Z,100904.00
2018-11-10T04:04:04.122Z,100907.00
2018-11-10T04:06:08.904Z,100902.00
2018-11-10T04:08:12.730Z,100901.00
2018-11-10T04:10:15.772Z,100906.00
2018-11-10T04:12:18.880Z,100901.00
2018-11-10T04:14:21.907Z,100900.00
2018-11-10T04:16:24.975Z,100896.00
2018-11-10T04:18:28.344Z,100888.00
2018-11-10T04:20:31.351Z,100889.00
2018-11-10T04:22:35.245Z,100888.00
2018-11-10T04:24:40.037Z,100883.00
2018-11-10T04:26:43.100Z,100885.00
2018-11-10T04:28:46.542Z,100883.00
2018-11-10T04:30:49.578Z,100881.00
2018-11-10T04:32:52.632Z,100885.00
2018-11-10T04:34:55.704Z,100887.00
2018-11-10T04:36:58.782Z,100884.00
2018-11-10T04:39:02.219Z,100888.00
2018-11-10T04:41:07.563Z,100887.00
2018-11-10T04:43:10.659Z,100881.00
2018-11-10T04:45:14.021Z,100880.00
2018-11-10T04:47:17.085Z,100881.00
2018-11-10T04:49:20.124Z,100874.00
2018-11-10T04:51:23.192Z,100877.00
2018-11-10T04:53:26.290Z,100868.00
2018-11-10T04:55:29.331Z,100875.00
2018-11-10T04:57:32.414Z,100873.00
2018-11-10T04:59:35.669Z,100876.00
2018-11-10T05:01:39.798Z,100882.00
2018-11-10T05:03:42.984Z,100889.00
2018-11-10T05:05:46.077Z,100885.00
2018-11-10T05:07:49.115Z,100882.00
2018-11-10T05:09:52.155Z,100883.00
2018-11-10T05:11:55.642Z,100886.00
2018-11-10T05:13:58.680Z,100887.00
2018-11-10T05:16:01.805Z,100883.00
2018-11-10T05:18:04.996Z,100881.00
2018-11-10T05:20:09.435Z,100867.00
2018-11-10T05:22:12.532Z,100866.00
2018-11-10T05:24:15.691Z,100865.00
2018-11-10T05:26:18.717Z,100871.00
2018-11-10T05:28:21.756Z,100867.00
2018-11-10T05:30:24.777Z,100867.00
2018-11-10T05:32:27.822Z,100866.00
2018-11-10T05:34:30.840Z,100859.00
2018-11-10T05:36:33.806Z,100864.00
2018-11-10T05:38:38.206Z,100864.00
2018-11-10T05:40:41.198Z,100869.00
2018-11-10T05:42:44.269Z,100874.00
2018-11-10T05:44:47.336Z,100877.00
2018-11-10T05:46:50.309Z,100878.00
2018-11-10T05:48:53.379Z,100880.00
2018-11-10T05:50:56.459Z,100888.00
2018-11-10T05:52:59.486Z,100885.00
2018-11-10T05:55:02.457Z,100885.00
2018-11-10T05:57:05.642Z,100880.00
2018-11-10T05:59:08.786Z,100874.00
2018-11-10T06:01:11.802Z,100867.00
2018-11-10T06:03:15.349Z,100867.00
2018-11-10T06:05:18.392Z,100868.00
2018-11-10T06:07:21.396Z,100872.00
2018-11-10T06:09:24.622Z,100873.00
2018-11-10T06:11:27.586Z,100872.00
2018-11-10T06:13:30.619Z,100864.00
2018-11-10T06:15:33.606Z,100865.00
2018-11-10T06:17:38.486Z,100864.00
2018-11-10T06:19:41.865Z,100873.00
2018-11-10T06:21:44.911Z,100869.00
2018-11-10T06:23:47.941Z,100869.00
2018-11-10T06:25:50.994Z,100873.00
2018-11-10T06:27:54.027Z,100861.00
2018-11-10T06:29:57.072Z,100860.00
2018-11-10T06:32:00.113Z,100858.00
2018-11-10T06:34:03.134Z,100861.00
2018-11-10T06:36:07.991Z,100862.00
2018-11-10T06:38:11.069Z,100858.00
2018-11-10T06:40:14.200Z,100858.00
2018-11-10T06:42:17.243Z,100857.00
2018-11-10T06:44:20.266Z,100860.00
2018-11-10T06:46:23.342Z,100863.00
2018-11-10T06:48:26.451Z,100867.00
2018-11-10T06:50:29.483Z,100860.00
2018-11-10T06:52:32.589Z,100866.00
2018-11-10T06:54:35.657Z,100861.00
2018-11-10T06:56:40.583Z,100857.00
2018-11-10T06:58:43.645Z,100862.00
2018-11-10T07:00:46.712Z,100856.00
2018-11-10T07:02:49.824Z,100845.00
2018-11-10T07:04:52.874Z,100849.00
2018-11-10T07:06:55.878Z,100844.00
2018-11-10T07:08:59.012Z,100846.00
2018-11-10T07:11:02.124Z,100856.00
2018-11-10T07:13:05.761Z,100853.00
2018-11-10T07:15:09.228Z,100774.00
2018-11-10T07:17:12.295Z,100867.00
2018-11-10T07:19:15.418Z,100868.00
2018-11-10T07:21:18.529Z,100874.00
2018-11-10T07:23:21.840Z,100871.00
2018-11-10T07:25:24.925Z,100871.00
2018-11-10T07:27:28.170Z,100871.00
2018-11-10T07:29:31.236Z,100865.00
2018-11-10T07:31:34.327Z,100867.00
2018-11-10T07:33:38.413Z,100867.00
2018-11-10T07:35:41.536Z,100865.00
2018-11-10T07:37:45.473Z,100858.00
2018-11-10T07:39:48.627Z,100863.00
2018-11-10T07:41:51.997Z,100862.00
2018-11-10T07:43:55.111Z,100860.00
2018-11-10T07:45:58.573Z,100856.00
2018-11-10T07:48:01.967Z,100857.00
2018-11-10T07:50:07.734Z,100852.00
2018-11-10T07:52:10.822Z,100853.00
2018-11-10T07:54:13.926Z,100849.00
2018-11-10T07:56:17.121Z,100848.00
2018-11-10T07:58:20.368Z,100846.00
2018-11-10T08:00:23.486Z,100846.00
2018-11-10T08:02:26.563Z,100847.00
2018-11-10T08:04:29.728Z,100845.00
2018-11-10T08:06:32.760Z,100847.00
2018-11-10T08:08:35.890Z,100848.00
2018-11-10T08:10:45.002Z,100848.00
2018-11-10T08:12:52.330Z,100842.00
2018-11-10T08:14:57.638Z,100846.00
2018-11-10T08:17:02.834Z,100842.00
2018-11-10T08:19:07.215Z,100839.00
2018-11-10T08:21:10.318Z,100837.00
2018-11-10T08:23:13.415Z,100840.00
2018-11-10T08:25:16.576Z,100839.00
2018-11-10T08:27:20.425Z,100845.00
2018-11-10T08:29:23.482Z,100837.00
2018-11-10T08:31:26.741Z,100838.00
2018-11-10T08:33:30.148Z,100839.00
2018-11-10T08:35:33.246Z,100843.00
2018-11-10T08:37:38.161Z,100845.00
2018-11-10T08:39:41.240Z,100845.00
2018-11-10T08:41:44.368Z,100852.00
2018-11-10T08:43:47.967Z,100845.00
2018-11-10T08:45:51.093Z,100840.00
2018-11-10T08:47:54.445Z,100831.00
2018-11-10T08:49:58.880Z,100824.00
2018-11-10T08:52:02.021Z,100818.00
2018-11-10T08:54:05.479Z,100816.00
2018-11-10T08:56:10.088Z,100812.00
2018-11-10T08:58:13.204Z,100813.00
2018-11-10T09:00:16.325Z,100810.00
2018-11-10T09:02:19.500Z,100811.00
2018-11-10T09:04:22.587Z,100812.00
2018-11-10T09:06:25.694Z,100812.00
2018-11-10T09:08:28.896Z,100811.00
2018-11-10T09:10:32.039Z,100809.00
2018-11-10T09:12:35.145Z,100813.00
2018-11-10T09:14:40.083Z,100815.00
2018-11-10T09:16:43.641Z,100814.00
2018-11-10T09:18:46.753Z,100810.00
2018-11-10T09:20:50.032Z,100806.00
2018-11-10T09:22:53.189Z,100804.00
2018-11-10T09:24:56.335Z,100807.00
2018-11-10T09:27:00.123Z,100809.00
2018-11-10T09:29:03.273Z,100800.00
2018-11-10T09:31:07.580Z,100801.00
2018-11-10T09:33:10.767Z,100797.00
2018-11-10T09:35:14.579Z,100799.00
2018-11-10T09:37:17.780Z,100794.00
2018-11-10T09:39:20.909Z,100789.00
2018-11-10T09:41:24.917Z,100781.00
2018-11-10T09:43:28.068Z,100776.00
2018-11-10T09:45:31.236Z,100777.00
2018-11-10T09:47:34.404Z,100776.00
2018-11-10T09:49:39.027Z,100781.00
2018-11-10T09:51:42.130Z,100781.00
2018-11-10T09:53:45.275Z,100782.00
2018-11-10T09:55:48.625Z,100775.00
2018-11-10T09:57:51.740Z,100763.00
2018-11-10T09:59:54.875Z,100759.00
2018-11-10T10:01:58.463Z,100749.00
2018-11-10T10:04:01.237Z,100749.00
2018-11-10T10:06:04.525Z,100754.00
2018-11-10T10:08:09.176Z,100756.00
2018-11-10T10:10:14.333Z,100750.00
2018-11-10T10:12:17.704Z,100759.00
2018-11-10T10:14:20.796Z,100758.00
2018-11-10T10:16:23.962Z,100771.00
2018-11-10T10:18:27.489Z,100769.00
2018-11-10T10:20:30.605Z,100770.00
2018-11-10T10:22:33.660Z,100761.00
2018-11-10T10:24:37.837Z,100760.00
2018-11-10T10:26:40.897Z,100758.00
2018-11-10T10:28:44.059Z,100755.00
2018-11-10T10:30:47.092Z,100755.00
2018-11-10T10:32:50.188Z,100748.00
2018-11-10T10:34:53.511Z,100746.00
2018-11-10T10:36:56.578Z,100746.00
2018-11-10T10:38:59.632Z,100739.00
2018-11-10T10:41:02.734Z,100733.00
2018-11-10T10:43:08.882Z,100734.00
2018-11-10T10:45:13.263Z,100734.00
2018-11-10T10:47:16.393Z,100738.00
2018-11-10T10:49:19.647Z,100740.00
2018-11-10T10:51:22.680Z,100735.00
2018-11-10T10:53:25.737Z,100733.00
2018-11-10T10:55:29.774Z,100734.00
2018-11-10T10:57:33.079Z,100730.00
2018-11-10T10:59:36.191Z,100732.00
2018-11-10T11:01:44.903Z,100729.00
2018-11-10T11:03:53.665Z,100725.00
2018-11-10T11:05:57.844Z,100726.00
2018-11-10T11:08:00.998Z,100731.00
2018-11-10T11:10:05.510Z,100720.00
2018-11-10T11:12:10.571Z,100720.00
2018-11-10T11:14:13.620Z,100719.00
2018-11-10T11:16:16.708Z,100730.00
2018-11-10T11:18:19.867Z,100726.00
2018-11-10T11:20:23.579Z,100721.00
2018-11-10T11:22:26.815Z,100720.00
2018-11-10T11:24:30.278Z,100714.00
2018-11-10T11:26:33.418Z,100716.00
2018-11-10T11:28:38.371Z,100718.00
2018-11-10T11:30:42.617Z,100717.00
2018-11-10T11:32:45.763Z,100715.00
2018-11-10T11:34:48.870Z,100712.00
2018-11-10T11:36:52.030Z,100717.00
2018-11-10T11:38:55.147Z,100712.00
2018-11-10T11:40:58.225Z,100712.00
2018-11-10T11:43:01.492Z,100713.00
2018-11-10T11:45:05.717Z,100711.00
2018-11-10T11:47:10.080Z,100702.00
2018-11-10T11:49:13.304Z,100701.00
2018-11-10T11:51:16.379Z,100704.00
2018-11-10T11:53:19.750Z,100700.00
2018-11-10T11:55:22.841Z,100695.00
2018-11-10T11:57:26.059Z,100690.00
2018-11-10T11:59:29.112Z,100691.00
2018-11-10T12:01:32.197Z,100698.00
2018-11-10T12:03:35.293Z,100702.00
2018-11-10T12:05:40.111Z,100698.00
2018-11-10T12:07:43.495Z,100696.00
2018-11-10T12:09:46.657Z,100706.00
2018-11-10T12:11:50.172Z,100703.00
2018-11-10T12:13:53.215Z,100706.00
2018-11-10T12:15:56.294Z,100705.00
2018-11-10T12:18:14.477Z,100703.00
2018-11-10T12:23:16.986Z,100695.00
2018-11-10T12:25:32.700Z,100695.00
2018-11-10T12:27:52.443Z,100693.00
2018-11-10T12:30:09.105Z,100690.00
2018-11-10T12:34:52.069Z,100697.00
2018-11-10T12:37:09.967Z,100696.00
2018-11-10T12:39:48.560Z,100688.00
2018-11-10T12:41:59.014Z,100679.00
2018-11-10T12:44:25.819Z,100671.00
2018-11-10T12:46:46.398Z,100670.00
2018-11-10T12:49:04.964Z,100657.00
2018-11-10T12:51:23.547Z,100656.00
2018-11-10T12:54:00.593Z,100658.00
2018-11-10T12:56:21.096Z,100653.00
2018-11-10T12:58:37.850Z,100660.00
2018-11-10T13:00:56.456Z,100658.00
2018-11-10T13:03:22.638Z,100654.00
2018-11-10T13:05:34.040Z,100647.00
2018-11-10T13:07:44.894Z,100635.00
2018-11-10T13:10:01.571Z,100630.00
2018-11-10T13:12:17.261Z,100627.00
2018-11-10T13:14:26.285Z,100621.00
2018-11-10T13:16:34.307Z,100624.00
2018-11-10T13:18:44.993Z,100632.00
2018-11-10T13:20:50.433Z,100641.00
2018-11-10T13:22:53.617Z,100651.00
2018-11-10T13:24:57.603Z,100668.00
2018-11-10T13:27:00.825Z,100664.00
2018-11-10T13:29:04.054Z,100657.00
2018-11-10T13:31:07.422Z,100661.00
2018-11-10T13:33:10.720Z,100659.00
2018-11-10T13:35:13.972Z,100658.00
2018-11-10T13:37:17.230Z,100662.00
2018-11-10T13:39:20.574Z,100661.00
2018-11-10T13:41:23.812Z,100663.00
2018-11-10T13:43:27.139Z,100661.00
2018-11-10T13:45:30.351Z,100654.00
2018-11-10T13:47:33.874Z,100652.00
2018-11-10T13:49:37.165Z,100652.00
2018-11-10T13:51:40.567Z,100643.00
2018-11-10T13:53:43.760Z,100644.00
2018-11-10T13:55:47.083Z,100641.00
2018-11-10T13:57:50.515Z,100640.00
2018-11-10T13:59:53.937Z,100640.00
2018-11-10T14:01:57.152Z,100640.00
2018-11-10T14:04:00.396Z,100640.00
2018-11-10T14:06:03.633Z,100640.00
2018-11-10T14:08:06.878Z,100637.00
2018-11-10T14:10:12.219Z,100641.00
2018-11-10T14:12:15.486Z,100648.00
2018-11-10T14:14:18.717Z,100652.00
2018-11-10T14:16:22.048Z,100651.00
2018-11-10T14:18:25.213Z,100656.00
2018-11-10T14:20:28.539Z,100659.00
2018-11-10T14:22:31.932Z,100661.00
2018-11-10T14:24:35.240Z,100654.00
2018-11-10T14:26:38.442Z,100653.00
2018-11-10T14:28:41.821Z,100654.00
2018-11-10T14:30:45.204Z,100652.00
2018-11-10T14:32:48.619Z,100653.00
2018-11-10T14:34:52.135Z,100657.00
2018-11-10T14:36:56.500Z,100655.00
2018-11-10T14:39:00.262Z,100657.00
2018-11-10T14:41:03.994Z,100656.00
2018-11-10T14:43:07.283Z,100659.00
2018-11-10T14:45:12.058Z,100661.00
2018-11-10T14:47:15.318Z,100668.00
2018-11-10T14:49:18.949Z,100671.00
2018-11-10T14:51:22.090Z,100674.00
2018-11-10T14:53:25.336Z,100677.00
2018-11-10T14:55:28.926Z,100678.00
2018-11-10T14:57:32.137Z,100678.00
2018-11-10T14:59:35.559Z,100680.00
2018-11-10T15:01:38.767Z,100684.00
2018-11-10T15:03:42.211Z,100682.00
2018-11-10T15:05:45.549Z,100691.00
2018-11-10T15:07:51.472Z,100687.00
2018-11-10T15:09:59.243Z,100689.00
2018-11-10T15:12:02.706Z,100698.00
2018-11-10T15:14:06.732Z,100705.00
2018-11-10T15:16:09.989Z,100704.00
2018-11-10T15:18:13.398Z,100703.00
2018-11-10T15:20:18.337Z,100708.00
2018-11-10T15:22:21.471Z,100706.00
2018-11-10T15:24:27.093Z,100705.00
2018-11-10T15:26:30.456Z,100706.00
2018-11-10T15:28:33.630Z,100701.00
2018-11-10T15:30:36.991Z,100704.00
2018-11-10T15:32:40.832Z,100707.00
2018-11-10T15:34:44.202Z,100705.00
2018-11-10T15:36:47.677Z,100710.00
2018-11-10T15:38:51.009Z,100709.00
2018-11-10T15:40:54.179Z,100712.00
2018-11-10T15:42:57.413Z,100717.00
2018-11-10T15:45:00.600Z,100719.00
2018-11-10T15:47:03.897Z,100719.00
2018-11-10T15:49:07.153Z,100698.00
2018-11-10T15:51:10.309Z,100721.00
2018-11-10T15:53:13.597Z,100722.00
2018-11-10T15:55:16.935Z,100720.00
2018-11-10T15:57:20.254Z,100721.00
2018-11-10T15:59:23.535Z,100720.00
2018-11-10T16:01:26.727Z,100717.00
2018-11-10T16:03:29.956Z,100718.00
2018-11-10T16:05:33.154Z,100712.00
2018-11-10T16:07:36.356Z,100714.00
2018-11-10T16:09:39.507Z,100715.00
2018-11-10T16:11:42.761Z,100714.00
2018-11-10T16:13:46.057Z,100717.00
2018-11-10T16:15:49.205Z,100721.00
2018-11-10T16:17:52.512Z,100715.00
2018-11-10T16:19:55.824Z,100723.00
2018-11-10T16:21:59.035Z,100721.00
2018-11-10T16:24:02.217Z,100726.00
2018-11-10T16:26:05.850Z,100724.00
2018-11-10T16:28:09.074Z,100723.00
2018-11-10T16:30:13.911Z,100726.00
2018-11-10T16:32:17.486Z,100726.00
2018-11-10T16:34:20.709Z,100730.00
2018-11-10T16:36:23.905Z,100727.00
2018-11-10T16:38:27.131Z,100733.00
2018-11-10T16:40:30.444Z,100739.00
2018-11-10T16:42:33.706Z,100744.00
2018-11-10T16:44:36.940Z,100747.00
2018-11-10T16:46:40.209Z,100745.00
2018-11-10T16:48:43.783Z,100744.00
2018-11-10T16:50:47.065Z,100740.00
2018-11-10T16:52:50.242Z,100738.00
2018-11-10T16:54:53.559Z,100736.00
2018-11-10T16:56:56.699Z,100737.00
2018-11-10T16:58:59.958Z,100737.00
2018-11-10T17:01:03.155Z,100739.00
2018-11-10T17:03:06.712Z,100733.00
2018-11-10T17:05:10.317Z,100737.00
2018-11-10T17:07:13.493Z,100740.00
2018-11-10T17:09:16.610Z,100740.00
2018-11-10T17:11:19.799Z,100740.00
2018-11-10T17:13:23.006Z,100742.00
2018-11-10T17:15:26.169Z,100740.00
2018-11-10T17:17:29.429Z,100736.00
2018-11-10T17:19:32.614Z,100737.00
2018-11-10T17:21:35.898Z,100729.00
2018-11-10T17:23:39.089Z,100732.00
2018-11-10T17:25:42.257Z,100731.00
2018-11-10T17:27:45.504Z,100731.00
2018-11-10T17:29:48.684Z,100730.00
2018-11-10T17:31:51.842Z,100734.00
2018-11-10T17:33:55.053Z,100724.00
2018-11-10T17:35:58.276Z,100721.00
2018-11-10T17:38:01.530Z,100723.00
2018-11-10T17:40:06.053Z,100725.00
2018-11-10T17:42:09.240Z,100722.00
2018-11-10T17:44:12.490Z,100730.00
2018-11-10T17:46:16.000Z,100729.00
2018-11-10T17:48:19.193Z,100730.00
2018-11-10T17:50:22.447Z,100730.00
2018-11-10T17:52:25.774Z,100729.00
2018-11-10T17:54:28.982Z,100727.00
2018-11-10T17:56:32.147Z,100732.00
2018-11-10T17:58:35.564Z,100727.00
2018-11-10T18:00:38.740Z,100727.00
2018-11-10T18:02:41.984Z,100726.00
2018-11-10T18:04:45.283Z,100730.00
2018-11-10T18:06:48.533Z,100729.00
2018-11-10T18:08:51.780Z,100729.00
2018-11-10T18:10:54.991Z,100728.00
2018-11-10T18:13:01.217Z,100729.00
2018-11-10T18:15:05.150Z,100725.00
2018-11-10T18:17:08.360Z,100730.00
2018-11-10T18:19:11.625Z,100724.00
2018-11-10T18:21:14.843Z,100727.00
2018-11-10T18:23:18.063Z,100724.00
2018-11-10T18:25:21.436Z,100721.00
2018-11-10T18:27:24.609Z,100716.00
2018-11-10T18:29:27.824Z,100717.00
2018-11-10T18:31:31.067Z,100719.00
2018-11-10T18:33:34.399Z,100715.00
2018-11-10T18:35:37.643Z,100718.00
2018-11-10T18:37:41.572Z,100715.00
2018-11-10T18:39:44.868Z,100715.00
2018-11-10T18:41:48.224Z,100716.00
2018-11-10T18:43:51.505Z,100719.00
2018-11-10T18:45:54.715Z,100727.00
2018-11-10T18:47:58.055Z,100730.00
2018-11-10T18:50:01.425Z,100726.00
2018-11-10T18:52:04.671Z,100725.00
2018-11-10T18:54:07.992Z,100726.00
2018-11-10T18:56:11.240Z,100726.00
2018-11-10T18:58:14.495Z,100726.00
2018-11-10T19:00:17.690Z,100729.00
2018-11-10T19:02:21.254Z,100726.00
2018-11-10T19:04:24.508Z,100719.00
2018-11-10T19:06:27.815Z,100727.00
2018-11-10T19:08:31.005Z,100730.00
2018-11-10T19:10:34.183Z,100730.00
2018-11-10T19:12:38.021Z,100733.00
2018-11-10T19:14:41.237Z,100734.00
2018-11-10T19:16:44.362Z,100731.00
2018-11-10T19:18:47.659Z,100730.00
2018-11-10T19:20:50.821Z,100731.00
2018-11-10T19:22:54.059Z,100728.00
2018-11-10T19:24:57.449Z,100729.00
2018-11-10T19:27:00.618Z,100734.00
2018-11-10T19:29:03.887Z,100734.00
2018-11-10T19:31:07.067Z,100736.00
2018-11-10T19:33:10.255Z,100727.00
2018-11-10T19:35:14.314Z,100726.00
2018-11-10T19:37:17.462Z,100721.00
2018-11-10T19:39:20.607Z,100725.00
2018-11-10T19:41:23.866Z,100723.00
2018-11-10T19:43:27.050Z,100721.00
2018-11-10T19:45:30.201Z,100726.00
2018-11-10T19:47:33.421Z,100725.00
2018-11-10T19:49:36.597Z,100719.00
2018-11-10T19:51:40.180Z,100723.00
2018-11-10T19:53:43.931Z,100726.00
2018-11-10T19:55:47.242Z,100726.00
2018-11-10T19:57:50.556Z,100724.00
2018-11-10T19:59:53.819Z,100732.00
2018-11-10T20:01:57.067Z,100731.00
2018-11-10T20:04:00.359Z,100733.00
2018-11-10T20:06:03.699Z,100727.00
2018-11-10T20:08:06.956Z,100732.00
2018-11-10T20:10:10.978Z,100737.00
2018-11-10T20:12:14.297Z,100728.00
2018-11-10T20:14:17.595Z,100725.00
2018-11-10T20:16:20.905Z,100728.00
2018-11-10T20:18:24.176Z,100731.00
2018-11-10T20:20:27.806Z,100722.00
2018-11-10T20:22:31.093Z,100725.00
2018-11-10T20:24:34.403Z,100722.00
2018-11-10T20:26:37.721Z,100725.00
2018-11-10T20:28:41.085Z,100727.00
2018-11-10T20:30:44.420Z,100731.00
2018-11-10T20:32:47.830Z,100728.00
2018-11-10T20:34:51.133Z,100728.00
2018-11-10T20:36:54.352Z,100721.00
2018-11-10T20:38:57.668Z,100717.00
2018-11-10T20:41:00.871Z,100717.00
2018-11-10T20:43:04.476Z,100720.00
2018-11-10T20:45:11.052Z,100721.00
2018-11-10T20:47:14.326Z,100727.00
2018-11-10T20:49:17.744Z,100729.00
2018-11-10T20:51:21.073Z,100729.00
2018-11-10T20:53:24.351Z,100726.00
2018-11-10T20:55:27.651Z,100733.00
2018-11-10T20:57:30.896Z,100731.00
2018-11-10T20:59:34.227Z,100730.00
2018-11-10T21:01:37.516Z,100725.00
2018-11-10T21:03:40.865Z,100722.00
2018-11-10T21:05:44.121Z,100725.00
2018-11-10T21:07:47.510Z,100724.00
2018-11-10T21:09:50.717Z,100723.00
2018-11-10T21:11:54.196Z,100725.00
2018-11-10T21:13:57.895Z,100725.00
2018-11-10T21:16:01.127Z,100729.00
2018-11-10T21:18:04.441Z,100732.00
2018-11-10T21:20:09.183Z,100734.00
2018-11-10T21:22:13.174Z,100738.00
2018-11-10T21:24:16.512Z,100731.00
2018-11-10T21:26:19.787Z,100732.00
2018-11-10T21:28:23.315Z,100743.00
2018-11-10T21:30:26.486Z,100744.00
2018-11-10T21:32:29.655Z,100741.00
2018-11-10T21:34:32.853Z,100743.00
2018-11-10T21:36:36.093Z,100745.00
2018-11-10T21:38:39.290Z,100749.00
2018-11-10T21:40:42.606Z,100752.00
2018-11-10T21:42:45.911Z,100752.00
2018-11-10T21:44:49.212Z,100746.00
2018-11-10T21:46:52.472Z,100745.00
2018-11-10T21:48:55.755Z,100749.00
2018-11-10T21:50:58.993Z,100747.00
2018-11-10T21:53:02.258Z,100745.00
2018-11-10T21:55:05.625Z,100750.00
2018-11-10T21:57:08.795Z,100753.00
2018-11-10T21:59:12.003Z,100755.00
2018-11-10T22:01:15.314Z,100755.00
2018-11-10T22:03:18.538Z,100756.00
2018-11-10T22:05:21.774Z,100755.00
2018-11-10T22:07:24.941Z,100753.00
2018-11-10T22:09:28.601Z,100750.00
2018-11-10T22:11:31.996Z,100757.00
2018-11-10T22:13:35.288Z,100755.00
2018-11-10T22:15:38.535Z,100751.00
2018-11-10T22:17:42.687Z,100753.00
2018-11-10T22:19:45.965Z,100751.00
2018-11-10T22:21:49.200Z,100751.00
2018-11-10T22:23:52.468Z,100747.00
2018-11-10T22:25:55.664Z,100747.00
2018-11-10T22:27:59.091Z,100748.00
2018-11-10T22:30:02.334Z,100748.00
2018-11-10T22:32:05.604Z,100752.00
2018-11-10T22:34:09.013Z,100751.00
2018-11-10T22:36:12.253Z,100750.00
2018-11-10T22:38:15.445Z,100748.00
2018-11-10T22:40:20.037Z,100752.00
2018-11-10T22:42:23.215Z,100752.00
2018-11-10T22:44:26.469Z,100759.00
2018-11-10T22:46:29.648Z,100761.00
2018-11-10T22:48:32.850Z,100758.00
2018-11-10T22:50:36.145Z,100752.00
2018-11-10T22:52:39.331Z,100755.00
2018-11-10T22:54:42.689Z,100754.00
2018-11-10T22:56:46.058Z,100751.00
2018-11-10T22:58:49.296Z,100739.00
2018-11-10T23:00:58.216Z,100740.00
2018-11-10T23:03:01.817Z,100743.00
2018-11-10T23:05:06.484Z,100750.00
2018-11-10T23:07:09.723Z,100755.00
2018-11-10T23:09:13.006Z,100749.00
2018-11-10T23:11:16.252Z,100749.00
2018-11-10T23:13:19.544Z,100748.00
2018-11-10T23:15:22.835Z,100742.00
2018-11-10T23:17:26.120Z,100742.00
2018-11-10T23:19:29.416Z,100733.00
2018-11-10T23:21:32.638Z,100726.00
2018-11-10T23:23:35.940Z,100711.00
2018-11-10T23:25:39.151Z,100739.00
2018-11-10T23:27:42.441Z,100736.00
2018-11-10T23:29:45.818Z,100734.00
2018-11-10T23:31:49.082Z,100729.00
2018-11-10T23:33:52.369Z,100732.00
2018-11-10T23:35:55.705Z,100736.00
2018-11-10T23:37:59.052Z,100735.00
2018-11-10T23:40:02.286Z,100741.00